Time;durP1;ratioP1;P1;durP2;ratioP2;P2;SDS_P1;SDS_P2;PMS_P1;PMS_P2;Temp;Humidity;BMP_temperature;BMP_pressure;BME280_temperature;BME280_humidity;BME280_pressure;Samples;Min_cycle;Max_cycle;Signal;HPM_P1;HPM_P2
2023/01/17 00:00:41;;;;;;;2.38;0.38;;;;;;;4.30;63.74;93875.13;6277284;22;20467;-74
2023/01/17 00:03:09;;;;;;;0.40;0.30;;;;;;;4.31;61.82;93875.94;6277594;22;20107;-74
2023/01/17 00:11:16;;;;;;;0.95;0.43;;;;;;;4.32;62.26;93870.53;6275998;22;20094;-75
2023/01/17 00:13:44;;;;;;;0.50;0.40;;;;;;;4.32;62.41;93864.59;6277599;22;20043;-75
2023/01/17 00:16:12;;;;;;;0.40;0.30;;;;;;;4.33;62.88;93868.78;6277805;22;20094;-74
2023/01/17 00:26:01;;;;;;;0.47;0.20;;;;;;;4.32;62.13;93869.75;6276616;22;20343;-74
2023/01/17 01:34:06;;;;;;;1.08;0.68;;;;;;;3.09;70.79;94008.06;6276779;22;20502;-74
2023/01/17 01:36:33;;;;;;;1.13;0.70;;;;;;;3.08;70.88;94016.81;6277225;22;20024;-75
2023/01/17 01:39:01;;;;;;;0.70;0.50;;;;;;;3.03;71.13;94016.59;6276405;22;20020;-74
2023/01/17 01:41:30;;;;;;;0.55;0.40;;;;;;;2.99;71.25;94019.75;6277035;22;20019;-74
2023/01/17 01:43:57;;;;;;;2.13;0.70;;;;;;;2.94;71.41;94019.56;6277133;22;20081;-74
2023/01/17 01:46:30;;;;;;;1.52;0.65;;;;;;;2.90;71.90;94014.00;6277067;22;20414;-75
2023/01/17 01:49:01;;;;;;;0.73;0.70;;;;;;;2.91;72.46;94018.19;6275948;22;20098;-74
2023/01/17 01:51:33;;;;;;;0.88;0.68;;;;;;;2.93;72.32;94023.13;6276622;22;20054;-75
2023/01/17 01:54:05;;;;;;;0.60;0.60;;;;;;;2.94;72.34;94029.88;6277232;22;20359;-74
2023/01/17 01:56:35;;;;;;;0.80;0.55;;;;;;;2.94;72.02;94027.28;6276279;22;20026;-74
2023/01/17 01:59:06;;;;;;;0.63;0.50;;;;;;;2.91;72.13;94025.09;6275233;22;20096;-74
2023/01/17 02:01:34;;;;;;;2.10;0.60;;;;;;;2.87;71.79;94022.94;6276252;22;20016;-74
2023/01/17 02:04:02;;;;;;;1.33;0.57;;;;;;;2.83;72.14;94024.31;6276478;22;20398;-74
2023/01/17 02:06:33;;;;;;;3.03;0.75;;;;;;;2.83;71.09;94026.88;6276669;22;20024;-74
2023/01/17 02:09:05;;;;;;;1.92;0.50;;;;;;;2.83;70.75;94026.09;6275032;22;20095;-74
2023/01/17 02:11:37;;;;;;;1.17;0.50;;;;;;;2.86;71.29;94023.94;6276380;22;20333;-73
2023/01/17 02:14:05;;;;;;;2.47;0.70;;;;;;;2.87;71.52;94025.50;6276308;22;20102;-74
2023/01/17 02:16:47;;;;;;;0.63;0.63;;;;;;;2.92;71.93;94029.28;6275854;22;20474;-75
2023/01/17 02:19:57;;;;;;;1.97;0.80;;;;;;;2.95;70.96;94021.97;6275370;22;20023;-74
2023/01/17 02:22:54;;;;;;;0.90;0.73;;;;;;;2.98;72.80;94021.53;6179118;22;20028;-74
2023/01/17 02:25:47;;;;;;;1.35;0.93;;;;;;;3.00;72.16;94021.34;6276216;22;20043;-74
2023/01/17 02:28:33;;;;;;;1.75;1.13;;;;;;;2.99;70.37;94023.13;6275486;22;20351;-74
2023/01/17 02:31:11;;;;;;;1.90;1.00;;;;;;;2.94;72.63;94022.16;6276064;22;20015;-74
2023/01/17 02:33:46;;;;;;;0.65;0.65;;;;;;;2.93;72.22;94021.34;6276417;22;20106;-74
2023/01/17 02:36:21;;;;;;;1.02;0.70;;;;;;;2.97;72.51;94017.38;6276274;22;20106;-74
2023/01/17 02:38:55;;;;;;;2.67;1.13;;;;;;;3.00;71.90;94023.94;6275272;22;20028;-74
2023/01/17 02:41:29;;;;;;;1.85;0.75;;;;;;;3.01;72.89;94022.94;6275809;22;20452;-74
2023/01/17 02:43:56;;;;;;;0.85;0.80;;;;;;;3.00;71.58;94022.16;6275707;22;20024;-75
2023/01/17 02:46:25;;;;;;;0.98;0.85;;;;;;;2.96;72.94;94022.75;6275774;22;20026;-74
2023/01/17 02:48:55;;;;;;;1.73;1.00;;;;;;;2.95;72.33;94014.22;6274961;22;20022;-74
2023/01/17 02:51:47;;;;;;;1.27;1.00;;;;;;;2.96;72.69;94009.88;6276015;22;20035;-74
2023/01/17 02:54:34;;;;;;;1.75;1.10;;;;;;;2.99;74.15;94009.47;6276264;22;20023;-74
2023/01/17 02:57:17;;;;;;;3.72;1.00;;;;;;;3.01;72.75;94013.41;6275802;22;20333;-74
2023/01/17 02:59:53;;;;;;;1.40;0.80;;;;;;;3.03;72.93;94018.38;6274934;22;20040;-74
2023/01/17 03:02:30;;;;;;;1.30;1.00;;;;;;;3.06;73.46;94013.63;6275979;22;20024;-74
2023/01/17 03:05:03;;;;;;;1.40;0.90;;;;;;;3.11;73.57;94010.47;6276186;22;20024;-74
2023/01/17 03:07:32;;;;;;;2.35;1.00;;;;;;;3.15;72.11;94003.91;6275948;22;20094;-74
2023/01/17 03:10:03;;;;;;;0.70;0.70;;;;;;;3.18;71.91;94008.66;6274937;22;20023;-74
2023/01/17 03:12:33;;;;;;;0.52;0.52;;;;;;;3.18;70.57;94011.22;6276770;22;20042;-74
2023/01/17 03:15:01;;;;;;;1.67;1.00;;;;;;;3.15;69.88;94016.78;6276500;22;20038;-74
2023/01/17 03:17:32;;;;;;;2.25;0.88;;;;;;;3.14;69.90;94012.63;6276287;22;20103;-74
2023/01/17 03:19:59;;;;;;;4.03;0.95;;;;;;;3.15;71.37;94014.22;6275080;22;20030;-75
2023/01/17 03:22:27;;;;;;;1.35;0.70;;;;;;;3.14;70.98;94020.34;6276225;22;20582;-74
2023/01/17 03:24:54;;;;;;;2.97;1.00;;;;;;;3.16;70.68;94020.94;6283653;22;20019;-74
2023/01/17 03:27:22;;;;;;;1.80;0.82;;;;;;;3.18;71.23;94023.34;6299330;22;20043;-73
2023/01/17 03:29:49;;;;;;;2.75;0.80;;;;;;;3.18;69.92;94018.19;6288994;22;20027;-75
2023/01/17 03:32:17;;;;;;;1.67;1.52;;;;;;;3.18;70.91;94023.34;6276904;22;20094;-74
2023/01/17 03:34:46;;;;;;;1.80;0.95;;;;;;;3.19;70.75;94020.56;6276130;22;20042;-75
2023/01/17 03:37:13;;;;;;;1.02;0.93;;;;;;;3.21;69.74;94017.75;6276106;22;20102;-74
2023/01/17 03:39:41;;;;;;;2.45;0.80;;;;;;;3.18;70.32;94018.97;6275416;22;20027;-74
2023/01/17 03:42:08;;;;;;;1.30;1.00;;;;;;;3.21;70.62;94012.63;6276302;22;20022;-74
2023/01/17 03:44:36;;;;;;;1.30;1.05;;;;;;;3.20;70.87;94016.97;6275900;22;20019;-74
2023/01/17 03:47:04;;;;;;;3.80;1.55;;;;;;;3.21;71.69;94012.63;6275701;22;20019;-74
2023/01/17 03:49:31;;;;;;;1.98;1.00;;;;;;;3.21;70.62;94015.97;6275051;22;20091;-74
2023/01/17 03:52:00;;;;;;;1.08;0.85;;;;;;;3.20;68.77;94021.34;6276203;22;20459;-74
2023/01/17 03:54:27;;;;;;;1.23;1.00;;;;;;;3.16;69.22;94018.38;6275995;22;20107;-74
2023/01/17 03:56:55;;;;;;;1.30;0.98;;;;;;;3.16;68.75;94020.16;6276703;22;20471;-74
2023/01/17 03:59:22;;;;;;;1.00;0.90;;;;;;;3.14;68.47;94020.34;6259286;22;20108;-80
2023/01/17 04:01:50;;;;;;;2.10;1.00;;;;;;;3.16;69.66;94020.94;6220175;23;20021;-84
2023/01/17 04:04:18;;;;;;;1.00;0.88;;;;;;;3.18;68.38;94018.97;6220052;23;20035;-79
2023/01/17 04:06:46;;;;;;;1.55;1.00;;;;;;;3.18;69.32;94025.91;6221465;23;20407;-82
2023/01/17 04:09:15;;;;;;;5.25;1.65;;;;;;;3.16;69.03;94033.03;6226322;23;20047;-86
2023/01/17 04:11:43;;;;;;;1.13;0.80;;;;;;;3.15;68.84;94021.94;6251581;23;20460;-82
2023/01/17 04:14:11;;;;;;;2.78;0.88;;;;;;;3.18;70.61;94018.97;6252003;23;20441;-83
2023/01/17 04:16:38;;;;;;;1.75;1.10;;;;;;;3.20;69.72;94016.97;6251989;23;20464;-83
2023/01/17 04:19:06;;;;;;;1.90;0.80;;;;;;;3.21;69.31;94013.41;6252440;23;20344;-82
2023/01/17 04:21:33;;;;;;;1.77;0.98;;;;;;;3.20;68.37;94016.19;6252744;23;20019;-80
2023/01/17 04:24:01;;;;;;;2.67;0.85;;;;;;;3.18;70.29;94011.22;6252005;23;20329;-85
2023/01/17 04:26:30;;;;;;;1.23;0.73;;;;;;;3.22;70.40;94015.00;6251333;23;20052;-82
2023/01/17 04:28:57;;;;;;;1.63;1.05;;;;;;;3.21;69.24;94008.25;6250188;23;20377;-81
2023/01/17 04:31:25;;;;;;;2.08;0.90;;;;;;;3.21;69.27;94008.25;6251137;23;20027;-84
2023/01/17 04:33:52;;;;;;;2.25;0.90;;;;;;;3.22;70.43;93996.97;6250895;23;20095;-81
2023/01/17 04:36:20;;;;;;;0.75;0.70;;;;;;;3.27;70.59;94002.31;6250031;23;20109;-79
2023/01/17 04:38:47;;;;;;;1.02;0.93;;;;;;;3.31;70.38;94002.69;6249572;23;20355;-82
2023/01/17 04:41:15;;;;;;;2.35;0.70;;;;;;;3.32;69.74;93998.34;6250493;23;20022;-88
2023/01/17 04:43:44;;;;;;;1.13;0.80;;;;;;;3.33;70.90;93992.22;6250353;23;20055;-86
2023/01/17 04:46:12;;;;;;;1.02;0.90;;;;;;;3.33;70.62;93994.78;6250420;23;20024;-80
2023/01/17 04:48:39;;;;;;;2.70;1.00;;;;;;;3.33;70.62;93999.94;6249299;23;20360;-87
2023/01/17 04:51:07;;;;;;;2.15;1.60;;;;;;;3.30;70.15;94001.91;6250817;23;20055;-78
2023/01/17 04:53:34;;;;;;;2.17;0.85;;;;;;;3.29;69.89;94010.63;6250319;23;20052;-81
2023/01/17 04:56:02;;;;;;;1.85;1.00;;;;;;;3.29;69.67;94005.47;6251122;23;20019;-78
2023/01/17 04:58:32;;;;;;;1.10;0.80;;;;;;;3.31;69.96;94005.28;6251017;23;20028;-80
2023/01/17 05:01:03;;;;;;;0.82;0.82;;;;;;;3.32;70.66;94001.69;6252363;23;20027;-80
2023/01/17 05:03:31;;;;;;;0.90;0.73;;;;;;;3.36;70.64;94004.69;6252151;23;20087;-80
2023/01/17 05:05:58;;;;;;;1.83;0.80;;;;;;;3.38;70.52;94007.84;6252506;23;20028;-81
2023/01/17 05:08:26;;;;;;;1.13;0.82;;;;;;;3.39;70.63;94019.72;6250684;23;20034;-80
2023/01/17 05:10:54;;;;;;;4.32;1.45;;;;;;;3.42;71.14;94014.19;6251116;23;20478;-78
2023/01/17 05:13:21;;;;;;;4.00;1.55;;;;;;;3.41;70.64;94028.88;6251325;23;20031;-85
2023/01/17 05:15:49;;;;;;;2.15;1.20;;;;;;;3.44;71.99;94030.25;6250730;23;20020;-78
2023/01/17 05:18:18;;;;;;;1.48;1.15;;;;;;;3.46;71.95;94036.00;6251250;23;20082;-80
2023/01/17 05:20:46;;;;;;;3.50;1.40;;;;;;;3.43;70.25;94028.66;6252902;23;20024;-80
2023/01/17 05:23:14;;;;;;;1.67;1.10;;;;;;;3.39;70.45;94050.66;6252865;23;20030;-79
2023/01/17 05:25:43;;;;;;;2.35;1.20;;;;;;;3.39;71.22;94081.56;6252888;23;20024;-81
2023/01/17 05:28:11;;;;;;;1.77;1.05;;;;;;;3.39;70.91;94081.56;6252611;23;20035;-86
2023/01/17 05:30:39;;;;;;;0.95;0.90;;;;;;;3.35;71.10;94072.69;6252675;22;20414;-80
2023/01/17 05:33:08;;;;;;;1.65;1.10;;;;;;;3.25;70.88;94070.47;6252677;23;20024;-83
2023/01/17 05:35:37;;;;;;;2.13;1.20;;;;;;;3.14;71.59;94061.56;6253663;23;20024;-79
2023/01/17 05:38:05;;;;;;;1.70;1.10;;;;;;;3.07;70.45;94058.97;6251737;23;20108;-80
2023/01/17 05:40:33;;;;;;;1.25;0.95;;;;;;;3.00;70.77;94053.03;6252806;23;20027;-80
2023/01/17 05:43:02;;;;;;;3.20;1.40;;;;;;;2.93;70.84;94054.84;6252426;23;20035;-84
2023/01/17 05:45:32;;;;;;;1.42;1.20;;;;;;;2.89;71.39;94057.00;6252104;23;20024;-84
2023/01/17 05:48:00;;;;;;;1.73;1.33;;;;;;;2.86;72.78;94047.09;6252144;23;20403;-82
2023/01/17 05:50:30;;;;;;;2.05;1.58;;;;;;;2.87;72.95;94046.09;6251714;23;20464;-80
2023/01/17 05:53:02;;;;;;;1.48;1.08;;;;;;;2.83;72.53;94044.91;6254059;23;20048;-82
2023/01/17 05:55:30;;;;;;;0.98;0.88;;;;;;;2.82;72.93;94039.94;6253632;23;20337;-80
2023/01/17 05:57:58;;;;;;;1.73;1.48;;;;;;;2.78;73.08;94042.13;6252683;23;20024;-80
2023/01/17 06:00:25;;;;;;;1.60;1.20;;;;;;;2.78;74.67;94039.56;6253007;23;20724;-82
2023/01/17 06:02:54;;;;;;;1.13;1.00;;;;;;;2.78;74.94;94042.13;6253032;23;20059;-79
2023/01/17 06:05:22;;;;;;;1.30;1.20;;;;;;;2.74;73.92;94038.38;6253335;23;20024;-80
2023/01/17 06:07:50;;;;;;;3.22;0.93;;;;;;;2.71;73.67;94043.88;6253144;23;20024;-82
2023/01/17 06:10:20;;;;;;;1.08;0.98;;;;;;;2.72;73.20;94040.34;6252419;23;20648;-79
2023/01/17 06:12:48;;;;;;;1.15;1.05;;;;;;;2.66;72.58;94035.97;6252807;23;20047;-79
2023/01/17 06:15:18;;;;;;;1.50;1.35;;;;;;;2.60;72.21;94037.56;6253519;23;20024;-80
2023/01/17 06:17:45;;;;;;;1.58;1.48;;;;;;;2.55;71.81;94041.69;6253830;23;20091;-80
2023/01/17 06:20:13;;;;;;;2.92;1.80;;;;;;;2.47;71.28;94043.47;6252610;23;20064;-81
2023/01/17 06:22:40;;;;;;;3.15;1.98;;;;;;;2.41;71.57;94033.16;6256975;23;20026;-84
2023/01/17 06:25:09;;;;;;;2.67;1.75;;;;;;;2.31;71.57;94035.31;6258521;23;20103;-80
2023/01/17 06:27:37;;;;;;;2.22;1.80;;;;;;;2.21;71.49;94026.19;6250797;23;20016;-78
2023/01/17 06:30:07;;;;;;;1.95;1.58;;;;;;;2.09;71.28;94022.56;6248856;23;20016;-81
2023/01/17 06:32:34;;;;;;;3.67;2.03;;;;;;;2.00;71.80;94018.59;6252894;23;20075;-78
2023/01/17 06:35:02;;;;;;;3.97;2.65;;;;;;;1.95;71.78;94013.22;6252257;23;20020;-81
2023/01/17 06:37:29;;;;;;;4.65;2.28;;;;;;;1.86;71.92;94015.16;6257273;23;20024;-81
2023/01/17 06:39:57;;;;;;;4.05;2.15;;;;;;;1.81;72.60;94008.00;6252132;23;20024;-80
2023/01/17 06:42:24;;;;;;;6.10;2.53;;;;;;;1.79;72.59;94011.75;6252902;23;20503;-77
2023/01/17 06:44:54;;;;;;;2.88;2.00;;;;;;;1.77;73.12;94009.41;6250309;23;20020;-80
2023/01/17 06:47:22;;;;;;;2.75;2.08;;;;;;;1.78;72.71;94008.41;6247819;23;20024;-78
2023/01/17 06:49:50;;;;;;;2.92;1.90;;;;;;;1.75;72.66;94010.56;6246706;23;20023;-81
2023/01/17 06:52:17;;;;;;;5.85;2.35;;;;;;;1.75;73.85;94013.94;6248161;23;20016;-80
2023/01/17 06:54:45;;;;;;;5.25;2.38;;;;;;;1.78;73.13;94012.75;6247575;23;20020;-78
2023/01/17 06:57:12;;;;;;;3.33;2.00;;;;;;;1.77;72.56;94006.00;6247337;23;20035;-79
2023/01/17 06:59:40;;;;;;;3.13;2.05;;;;;;;1.75;72.70;94003.66;6246746;23;20016;-79
2023/01/17 07:02:11;;;;;;;3.88;2.30;;;;;;;1.72;72.64;94003.22;6247960;23;20339;-77
2023/01/17 07:04:38;;;;;;;2.63;2.28;;;;;;;1.71;73.77;94010.16;6246053;23;20102;-78
2023/01/17 07:07:06;;;;;;;20.05;10.32;;;;;;;1.70;72.74;94016.25;6246549;23;20135;-79
2023/01/17 07:09:33;;;;;;;11.30;5.13;;;;;;;1.65;72.43;94013.47;6249936;23;20106;-80
2023/01/17 07:12:01;;;;;;;9.48;5.82;;;;;;;1.60;72.07;94014.06;6246868;23;20091;-79
2023/01/17 07:14:29;;;;;;;7.95;4.70;;;;;;;1.58;71.75;94023.72;6247390;23;20123;-78
2023/01/17 07:16:57;;;;;;;7.05;3.10;;;;;;;1.54;71.70;94024.28;6247125;23;20020;-79
2023/01/17 07:19:26;;;;;;;3.70;2.75;;;;;;;1.49;71.71;94024.06;6245878;23;20024;-78
2023/01/17 07:21:54;;;;;;;7.28;3.95;;;;;;;1.45;71.78;94023.66;6247712;23;20020;-81
2023/01/17 07:24:22;;;;;;;9.50;4.72;;;;;;;1.43;71.30;94018.69;6248351;23;20095;-77
2023/01/17 07:26:50;;;;;;;4.90;3.55;;;;;;;1.41;71.18;94017.31;6248792;23;20026;-78
2023/01/17 07:29:18;;;;;;;4.22;2.53;;;;;;;1.38;71.05;94025.41;6248255;23;20402;-79
2023/01/17 07:31:45;;;;;;;15.90;8.23;;;;;;;1.33;71.23;94018.22;6254383;23;20464;-83
2023/01/17 07:34:13;;;;;;;24.02;11.77;;;;;;;1.33;70.76;94022.56;6252792;23;20047;-82
2023/01/17 07:36:42;;;;;;;27.75;13.88;;;;;;;1.32;70.64;94018.44;6251661;23;20091;-88
2023/01/17 07:39:10;;;;;;;21.33;11.30;;;;;;;1.32;70.60;94013.31;6251766;23;20016;-79
2023/01/17 07:41:41;;;;;;;12.05;6.10;;;;;;;1.34;70.33;94006.19;6264197;23;20103;-89
2023/01/17 07:44:14;;;;;;;13.25;6.85;;;;;;;1.33;70.02;94002.81;6265805;23;20023;-91
2023/01/17 07:46:42;;;;;;;7.75;5.57;;;;;;;1.35;69.94;94000.06;6256999;23;20411;-85
2023/01/17 07:49:09;;;;;;;10.30;6.32;;;;;;;1.35;69.24;94002.63;6255145;23;20111;-85
2023/01/17 07:51:37;;;;;;;9.07;5.38;;;;;;;1.35;69.06;94000.06;6256322;23;20095;-89
2023/01/17 07:54:06;;;;;;;7.28;4.25;;;;;;;1.32;69.06;93997.88;6256208;23;20020;-86
2023/01/17 07:56:34;;;;;;;6.43;4.03;;;;;;;1.28;68.75;93992.31;6260388;23;20024;-78
2023/01/17 07:59:01;;;;;;;5.07;3.45;;;;;;;1.24;68.51;93985.97;6261190;23;20024;-88
2023/01/17 08:01:29;;;;;;;6.60;3.63;;;;;;;1.22;68.74;93977.66;6264619;23;20031;-80
2023/01/17 08:03:57;;;;;;;6.03;3.15;;;;;;;1.18;68.09;93979.84;6256943;23;20050;-80
2023/01/17 08:06:26;;;;;;;9.73;2.95;;;;;;;1.16;67.87;93974.09;6258684;23;20020;-88
2023/01/17 08:08:55;;;;;;;4.60;2.88;;;;;;;1.16;67.80;93974.09;6253103;23;20023;-79
2023/01/17 08:11:25;;;;;;;3.85;2.72;;;;;;;1.15;67.78;93972.50;6252660;23;20032;-80
2023/01/17 08:13:56;;;;;;;8.55;3.30;;;;;;;1.17;67.84;93972.31;6251373;23;20087;-78
2023/01/17 08:16:24;;;;;;;5.80;2.13;;;;;;;1.16;67.40;93968.97;6251426;23;20024;-81
2023/01/17 08:18:52;;;;;;;3.92;2.42;;;;;;;1.18;67.25;93966.19;6251645;23;20464;-81
2023/01/17 08:21:19;;;;;;;5.28;2.53;;;;;;;1.21;66.69;93966.59;6256086;23;20099;-85
2023/01/17 08:23:48;;;;;;;2.58;1.50;;;;;;;1.26;66.71;93965.25;6256082;23;20020;-84
2023/01/17 08:26:20;;;;;;;3.83;1.65;;;;;;;1.32;67.16;93959.38;6252586;23;20075;-77
2023/01/17 08:28:49;;;;;;;8.57;3.50;;;;;;;1.34;66.60;93950.47;6245577;23;20027;-77
2023/01/17 08:31:18;;;;;;;26.02;10.88;;;;;;;1.39;66.49;93955.06;6249070;23;20027;-78
2023/01/17 08:33:46;;;;;;;10.70;4.43;;;;;;;1.44;65.80;93960.41;6245203;23;20035;-82
2023/01/17 08:36:13;;;;;;;6.93;2.80;;;;;;;1.52;65.70;93967.94;6249122;23;20031;-78
2023/01/17 08:38:41;;;;;;;2.55;1.42;;;;;;;1.54;65.31;93973.69;6247295;23;20107;-78
2023/01/17 08:41:08;;;;;;;5.38;2.05;;;;;;;1.52;65.64;93975.66;6247758;23;20035;-76
2023/01/17 08:43:36;;;;;;;5.60;2.20;;;;;;;1.56;65.59;93976.88;6248537;23;20347;-77
2023/01/17 08:46:05;;;;;;;6.13;2.58;;;;;;;1.59;65.62;93986.75;6247900;23;20020;-78
2023/01/17 08:48:33;;;;;;;7.82;3.35;;;;;;;1.63;65.86;93987.19;6246396;23;20020;-76
2023/01/17 08:51:01;;;;;;;10.02;3.72;;;;;;;1.73;67.69;93994.53;6247787;23;20031;-82
2023/01/17 08:53:29;;;;;;;6.20;3.88;;;;;;;1.85;67.80;94005.84;6248037;23;20031;-78
2023/01/17 08:55:59;;;;;;;6.63;3.45;;;;;;;1.96;68.84;94010.44;6247732;23;20027;-77
2023/01/17 08:58:28;;;;;;;5.57;2.60;;;;;;;2.04;66.90;94010.28;6246620;23;20024;-76
2023/01/17 09:00:59;;;;;;;4.45;2.72;;;;;;;2.09;65.23;94008.91;6247500;23;20074;-77
2023/01/17 09:03:28;;;;;;;17.10;4.43;;;;;;;2.14;64.14;94006.56;6248288;23;20024;-77
2023/01/17 09:06:04;;;;;;;5.90;2.78;;;;;;;2.18;63.12;94003.41;6247181;23;20095;-77
2023/01/17 09:08:32;;;;;;;4.38;2.40;;;;;;;2.31;65.13;94005.22;6246819;23;20380;-78
2023/01/17 09:11:03;;;;;;;5.53;2.55;;;;;;;2.43;63.69;94001.09;6247308;23;20052;-79
2023/01/17 09:13:30;;;;;;;6.72;2.38;;;;;;;2.52;63.22;93998.34;6248782;23;20095;-78
2023/01/17 09:15:58;;;;;;;4.40;2.30;;;;;;;2.58;62.90;93997.53;6250847;23;20099;-79
2023/01/17 09:18:26;;;;;;;2.80;2.00;;;;;;;2.67;62.87;94001.53;6248952;23;20030;-80
2023/01/17 09:20:58;;;;;;;4.00;2.15;;;;;;;2.70;62.48;93995.19;6249691;23;20020;-81
2023/01/17 09:23:27;;;;;;;4.97;2.45;;;;;;;2.75;62.64;93997.97;6249292;23;20051;-78
2023/01/17 09:25:56;;;;;;;4.85;2.40;;;;;;;2.86;64.21;93995.59;6251203;23;20020;-83
2023/01/17 09:28:24;;;;;;;3.92;2.45;;;;;;;2.96;63.84;93986.69;6252943;23;20062;-79
2023/01/17 09:30:52;;;;;;;4.70;2.58;;;;;;;3.05;64.04;93995.78;6253418;23;20024;-80
2023/01/17 09:33:22;;;;;;;6.00;2.65;;;;;;;3.12;63.32;93994.00;6251749;23;20020;-78
2023/01/17 09:35:49;;;;;;;3.58;2.25;;;;;;;3.18;63.45;93984.69;6252398;23;20059;-81
2023/01/17 09:38:20;;;;;;;2.65;1.50;;;;;;;3.22;62.23;93989.25;6250705;23;20020;-79
2023/01/17 09:40:48;;;;;;;3.25;1.65;;;;;;;3.26;61.48;93984.50;6251040;23;20506;-78
2023/01/17 09:43:24;;;;;;;1.45;1.30;;;;;;;3.33;60.11;93984.47;6251001;23;20031;-81
2023/01/17 09:45:52;;;;;;;4.20;1.58;;;;;;;3.40;61.09;93982.66;6251046;23;20016;-80
2023/01/17 09:48:28;;;;;;;3.97;1.90;;;;;;;3.50;59.89;93976.09;6250739;23;20024;-80
2023/01/17 09:51:00;;;;;;;4.30;1.90;;;;;;;3.56;59.14;93973.69;6251431;23;20047;-80
2023/01/17 09:53:34;;;;;;;6.70;1.77;;;;;;;3.59;58.68;93974.09;6249111;23;20091;-79
2023/01/17 09:56:07;;;;;;;3.28;2.08;;;;;;;3.62;58.84;93973.69;6250413;23;20020;-79
2023/01/17 09:58:42;;;;;;;7.18;2.45;;;;;;;3.73;60.77;93974.84;6248070;23;20030;-85
2023/01/17 10:01:18;;;;;;;3.38;1.95;;;;;;;3.80;58.48;93973.03;6233161;22;20016;-77
2023/01/17 10:04:03;;;;;;;10.00;3.00;;;;;;;3.85;57.37;93964.69;6215664;23;20028;-76
2023/01/17 10:06:53;;;;;;;5.68;2.53;;;;;;;3.99;57.17;93949.94;6214484;23;20024;-76
2023/01/17 10:09:36;;;;;;;4.35;2.20;;;;;;;4.16;59.47;93942.53;6214295;23;20108;-77
2023/01/17 10:12:18;;;;;;;5.80;1.98;;;;;;;4.33;56.12;93926.34;6236963;23;20024;-76
2023/01/17 10:15:15;;;;;;;5.57;2.55;;;;;;;4.49;54.98;93926.84;6245034;23;20047;-77
2023/01/17 10:17:53;;;;;;;4.13;1.98;;;;;;;4.70;55.58;93925.66;6244793;23;20452;-77
2023/01/17 10:20:42;;;;;;;2.95;1.40;;;;;;;4.92;53.89;93915.78;6245541;23;20050;-77
2023/01/17 10:23:28;;;;;;;5.28;1.73;;;;;;;5.12;52.42;93913.78;6245812;23;20413;-77
2023/01/17 10:26:01;;;;;;;4.88;1.35;;;;;;;5.33;54.12;93912.56;6245238;23;20038;-77
2023/01/17 10:28:38;;;;;;;4.85;1.30;;;;;;;5.51;51.58;93900.66;6244611;23;20028;-77
2023/01/17 10:31:10;;;;;;;4.47;1.40;;;;;;;5.80;54.04;93903.50;6245071;23;20103;-77
2023/01/17 10:33:43;;;;;;;13.90;2.08;;;;;;;6.07;49.23;93893.63;6245187;23;20043;-77
2023/01/17 10:36:19;;;;;;;2.70;1.13;;;;;;;6.32;48.12;93896.06;6245016;23;20099;-76
2023/01/17 10:38:49;;;;;;;3.20;1.10;;;;;;;6.64;48.31;93882.84;6244027;23;20035;-77
2023/01/17 10:41:24;;;;;;;3.90;1.20;;;;;;;6.92;46.03;93875.19;6244847;23;20080;-76
2023/01/17 10:43:59;;;;;;;4.10;1.80;;;;;;;7.17;44.91;93876.75;6245331;23;20467;-77
2023/01/17 10:46:33;;;;;;;6.18;2.60;;;;;;;7.40;44.36;93881.91;6244543;23;20028;-77
2023/01/17 10:49:02;;;;;;;3.25;1.48;;;;;;;7.63;44.19;93872.50;6243912;23;20346;-77
2023/01/17 10:51:58;;;;;;;4.85;1.77;;;;;;;7.88;41.27;93879.19;6244342;23;20400;-77
2023/01/17 10:54:44;;;;;;;2.90;1.98;;;;;;;8.27;41.76;93874.19;6244808;23;20101;-77
2023/01/17 10:57:17;;;;;;;3.05;2.20;;;;;;;8.60;42.32;93873.44;6244754;23;20020;-77
2023/01/17 10:59:44;;;;;;;4.30;1.88;;;;;;;8.86;42.30;93877.22;6243900;23;20020;-77
2023/01/17 11:02:19;;;;;;;2.17;1.40;;;;;;;8.99;39.64;93879.50;6244146;23;20024;-77
2023/01/17 11:04:50;;;;;;;3.08;1.52;;;;;;;9.10;40.52;93869.25;6244385;23;20047;-77
2023/01/17 11:07:20;;;;;;;2.28;1.33;;;;;;;9.11;40.58;93865.59;6244230;23;20020;-77
2023/01/17 11:09:50;;;;;;;3.20;1.38;;;;;;;9.10;39.70;93854.41;6243659;23;20103;-77
2023/01/17 11:12:24;;;;;;;3.83;2.20;;;;;;;9.17;38.36;93855.03;6244165;23;20028;-76
2023/01/17 11:14:58;;;;;;;3.70;1.55;;;;;;;9.32;38.77;93853.66;6244392;23;20031;-77
2023/01/17 11:17:26;;;;;;;2.38;1.20;;;;;;;9.53;43.18;93845.06;6244148;23;20103;-77
2023/01/17 11:20:05;;;;;;;2.15;1.48;;;;;;;9.73;39.13;93839.31;6243639;23;20361;-76
2023/01/17 11:22:33;;;;;;;2.58;1.80;;;;;;;9.85;38.59;93844.38;6244533;23;20026;-77
2023/01/17 11:25:01;;;;;;;2.78;1.92;;;;;;;9.88;42.95;93842.09;6245109;23;20034;-77
2023/01/17 11:27:32;;;;;;;2.40;1.35;;;;;;;9.86;39.21;93845.94;6244869;23;20020;-77
2023/01/17 11:30:14;;;;;;;2.72;1.70;;;;;;;9.83;36.22;93841.22;6246967;23;20059;-76
2023/01/17 11:32:51;;;;;;;5.17;1.77;;;;;;;9.90;41.22;93834.81;6247599;23;20051;-76
2023/01/17 11:35:24;;;;;;;3.65;1.95;;;;;;;10.03;38.40;93830.22;6247122;23;20588;-76
2023/01/17 11:37:57;;;;;;;4.97;2.75;;;;;;;10.13;35.42;93837.38;6246942;23;20094;-76
2023/01/17 11:40:28;;;;;;;3.65;1.90;;;;;;;10.21;35.92;93824.69;6247822;23;20020;-76
2023/01/17 11:43:03;;;;;;;2.78;1.90;;;;;;;10.31;36.15;93821.41;6247784;23;20361;-76
2023/01/17 11:45:32;;;;;;;4.22;1.70;;;;;;;10.45;36.18;93812.16;6247753;23;20499;-77
2023/01/17 11:48:12;;;;;;;3.80;2.05;;;;;;;10.51;35.81;93813.72;6257779;23;20024;-76
2023/01/17 11:50:41;;;;;;;3.00;1.92;;;;;;;10.58;36.12;93813.53;6257237;23;20471;-75
2023/01/17 11:53:18;;;;;;;3.15;2.10;;;;;;;10.58;32.73;93810.91;6247830;23;20026;-75
2023/01/17 11:56:02;;;;;;;3.78;2.10;;;;;;;10.51;32.51;93807.75;6247037;23;20043;-75
2023/01/17 11:58:33;;;;;;;2.95;1.58;;;;;;;10.48;32.79;93795.22;6246600;23;20020;-76
2023/01/17 12:01:25;;;;;;;4.75;1.85;;;;;;;10.47;33.41;93786.63;6246814;23;20027;-75
2023/01/17 12:04:21;;;;;;;3.22;1.83;;;;;;;10.58;32.80;93774.44;6247470;23;20051;-75
2023/01/17 12:07:02;;;;;;;3.33;1.83;;;;;;;10.58;33.54;93781.47;6214280;23;20094;-75
2023/01/17 12:09:39;;;;;;;3.50;1.67;;;;;;;10.53;32.66;93782.22;6245904;23;20108;-75
2023/01/17 12:15:15;;;;;;;7.55;4.28;;;;;;;10.34;33.07;93773.22;6247271;23;20519;-75
2023/01/17 12:17:57;;;;;;;3.63;1.67;;;;;;;10.27;32.47;93784.59;6247113;23;20103;-75
2023/01/17 12:20:32;;;;;;;7.18;3.35;;;;;;;10.19;32.82;93777.25;6247336;23;20020;-75
2023/01/17 12:23:21;;;;;;;4.40;2.20;;;;;;;10.05;32.48;93786.50;6247168;23;20024;-75
2023/01/17 12:26:00;;;;;;;4.60;2.70;;;;;;;9.88;32.52;93782.19;6246966;23;20095;-75
2023/01/17 12:28:49;;;;;;;4.28;2.45;;;;;;;9.73;36.38;93774.25;6245824;23;20031;-74
2023/01/17 12:31:29;;;;;;;4.50;2.50;;;;;;;9.48;32.45;93772.94;6246630;23;20020;-74
2023/01/17 12:34:03;;;;;;;3.95;2.40;;;;;;;9.16;33.40;93779.84;6247039;23;20024;-75
2023/01/17 12:36:42;;;;;;;6.47;3.53;;;;;;;8.87;33.22;93773.00;6246741;23;20070;-75
2023/01/17 12:39:13;;;;;;;5.65;2.60;;;;;;;8.53;34.56;93774.09;6244623;23;20024;-74
2023/01/17 12:41:55;;;;;;;3.90;2.08;;;;;;;8.17;34.13;93761.31;6245377;23;20023;-75
2023/01/17 12:44:35;;;;;;;3.63;2.45;;;;;;;7.84;34.84;93749.88;6245735;23;20399;-75
2023/01/17 12:47:06;;;;;;;4.78;2.55;;;;;;;7.62;35.74;93752.38;6245246;23;20031;-75
2023/01/17 12:49:41;;;;;;;5.40;3.05;;;;;;;7.50;35.63;93754.25;6244235;23;20048;-75
2023/01/17 12:52:16;;;;;;;5.30;2.63;;;;;;;7.38;35.28;93749.09;6245417;23;20020;-75
2023/01/17 12:54:48;;;;;;;9.05;4.97;;;;;;;7.26;35.90;93742.38;6244823;23;20387;-74
2023/01/17 12:57:21;;;;;;;7.88;4.47;;;;;;;7.16;36.40;93732.59;6245222;23;20365;-74
2023/01/17 12:59:54;;;;;;;8.75;4.05;;;;;;;7.11;36.60;93725.53;6244541;23;20363;-75
2023/01/17 13:02:30;;;;;;;;;;;;;;;7.11;36.73;93725.53;6244681;23;20026;-75
2023/01/17 13:05:06;;;;;;;5.60;2.50;;;;;;;6.97;36.83;93714.63;6244417;23;20332;-74
2023/01/17 13:07:43;;;;;;;9.50;3.22;;;;;;;6.85;37.98;93705.31;6246651;23;20024;-75
2023/01/17 13:10:31;;;;;;;3.45;1.88;;;;;;;6.77;38.12;93703.88;6246791;23;20103;-74
2023/01/17 13:13:05;;;;;;;4.63;2.40;;;;;;;6.70;38.32;93698.03;6245842;23;20104;-75
2023/01/17 13:15:37;;;;;;;5.75;2.67;;;;;;;6.61;37.98;93700.19;6246158;23;20502;-74
2023/01/17 13:18:13;;;;;;;4.55;2.15;;;;;;;6.50;37.85;93698.41;6241687;23;20355;-75
2023/01/17 13:20:56;;;;;;;3.03;1.95;;;;;;;6.37;37.21;93704.59;6243506;23;20031;-75
2023/01/17 13:23:28;;;;;;;;;;;;;;;6.28;38.06;93700.78;6244179;23;20031;-75